sensor_id;sensor_type;location;lat;lon;timestamp;pressure;altitude;pressure_sealevel;temperature;humidity
12759;BME280;20944;47.048;15.390;2023-12-28T00:00:06;98081.75;;;2.50;100.00
12759;BME280;20944;47.048;15.390;2023-12-28T00:02:35;98079.16;;;2.50;100.00
12759;BME280;20944;47.048;15.390;2023-12-28T00:05:04;98075.78;;;2.53;100.00
12759;BME280;20944;47.048;15.390;2023-12-28T00:07:32;98066.22;;;2.47;100.00
12759;BME280;20944;47.048;15.390;2023-12-28T00:10:03;98067.81;;;2.37;100.00
12759;BME280;20944;47.048;15.390;2023-12-28T00:12:32;98078.91;;;2.27;100.00
12759;BME280;20944;47.048;15.390;2023-12-28T00:15:00;98069.47;;;2.31;100.00
12759;BME280;20944;47.048;15.390;2023-12-28T00:17:28;98038.19;;;2.09;100.00
12759;BME280;20944;47.048;15.390;2023-12-28T00:19:57;98048.56;;;2.12;100.00
12759;BME280;20944;47.048;15.390;2023-12-28T00:22:25;98060.00;;;2.31;100.00
12759;BME280;20944;47.048;15.390;2023-12-28T00:24:54;98055.59;;;2.26;100.00
12759;BME280;20944;47.048;15.390;2023-12-28T00:27:24;98060.84;;;2.32;100.00
12759;BME280;20944;47.048;15.390;2023-12-28T00:29:52;98056.47;;;2.26;100.00
12759;BME280;20944;47.048;15.390;2023-12-28T00:32:20;98066.66;;;2.12;100.00
12759;BME280;20944;47.048;15.390;2023-12-28T00:34:48;98064.84;;;2.05;100.00
12759;BME280;20944;47.048;15.390;2023-12-28T00:37:17;98070.78;;;1.98;100.00
12759;BME280;20944;47.048;15.390;2023-12-28T00:39:45;98070.78;;;1.97;100.00
12759;BME280;20944;47.048;15.390;2023-12-28T00:42:18;98085.34;;;1.90;100.00
12759;BME280;20944;47.048;15.390;2023-12-28T00:44:48;98074.06;;;1.85;100.00
12759;BME280;20944;47.048;15.390;2023-12-28T00:47:16;98070.53;;;1.80;100.00
12759;BME280;20944;47.048;15.390;2023-12-28T00:49:45;98062.84;;;1.83;100.00
12759;BME280;20944;47.048;15.390;2023-12-28T00:52:14;98072.31;;;1.84;100.00
12759;BME280;20944;47.048;15.390;2023-12-28T00:54:42;98068.03;;;1.84;100.00
12759;BME280;20944;47.048;15.390;2023-12-28T00:57:10;98078.38;;;1.86;100.00
12759;BME280;20944;47.048;15.390;2023-12-28T00:59:39;98077.44;;;1.81;100.00
12759;BME280;20944;47.048;15.390;2023-12-28T01:02:09;98027.88;;;1.46;100.00
12759;BME280;20944;47.048;15.390;2023-12-28T01:04:37;98075.00;;;1.90;100.00
12759;BME280;20944;47.048;15.390;2023-12-28T01:07:06;98070.63;;;1.86;100.00
12759;BME280;20944;47.048;15.390;2023-12-28T01:09:34;98035.75;;;1.56;100.00
12759;BME280;20944;47.048;15.390;2023-12-28T01:12:03;98064.31;;;1.66;100.00
12759;BME280;20944;47.048;15.390;2023-12-28T01:14:32;98063.44;;;1.64;100.00
12759;BME280;20944;47.048;15.390;2023-12-28T01:17:01;98047.88;;;1.60;100.00
12759;BME280;20944;47.048;15.390;2023-12-28T01:19:30;98066.06;;;1.68;100.00
12759;BME280;20944;47.048;15.390;2023-12-28T01:21:59;98081.53;;;1.67;100.00
12759;BME280;20944;47.048;15.390;2023-12-28T01:24:27;98072.16;;;1.72;100.00
12759;BME280;20944;47.048;15.390;2023-12-28T01:26:56;98071.28;;;1.71;100.00
12759;BME280;20944;47.048;15.390;2023-12-28T01:29:24;98029.59;;;1.45;100.00
12759;BME280;20944;47.048;15.390;2023-12-28T01:31:53;98070.28;;;1.63;100.00
12759;BME280;20944;47.048;15.390;2023-12-28T01:34:21;98076.47;;;1.73;100.00
12759;BME280;20944;47.048;15.390;2023-12-28T01:36:51;98046.00;;;1.49;100.00
12759;BME280;20944;47.048;15.390;2023-12-28T01:39:20;98064.13;;;1.52;100.00
12759;BME280;20944;47.048;15.390;2023-12-28T01:41:48;98005.16;;;1.23;100.00
12759;BME280;20944;47.048;15.390;2023-12-28T01:44:17;98071.13;;;1.60;100.00
12759;BME280;20944;47.048;15.390;2023-12-28T01:46:45;98054.41;;;1.37;100.00
12759;BME280;20944;47.048;15.390;2023-12-28T01:49:14;98068.25;;;1.42;100.00
12759;BME280;20944;47.048;15.390;2023-12-28T01:51:44;98064.75;;;1.37;100.00
12759;BME280;20944;47.048;15.390;2023-12-28T01:54:15;98048.06;;;1.17;100.00
12759;BME280;20944;47.048;15.390;2023-12-28T01:56:44;98051.44;;;1.13;100.00
12759;BME280;20944;47.048;15.390;2023-12-28T01:59:13;98058.19;;;1.04;100.00
12759;BME280;20944;47.048;15.390;2023-12-28T02:01:41;98061.84;;;1.17;100.00
12759;BME280;20944;47.048;15.390;2023-12-28T02:04:10;98050.47;;;1.06;100.00
12759;BME280;20944;47.048;15.390;2023-12-28T02:06:39;98057.53;;;1.16;100.00
12759;BME280;20944;47.048;15.390;2023-12-28T02:09:07;98042.91;;;1.17;100.00
12759;BME280;20944;47.048;15.390;2023-12-28T02:11:37;98048.03;;;1.14;100.00
12759;BME280;20944;47.048;15.390;2023-12-28T02:14:06;98029.91;;;1.09;100.00
12759;BME280;20944;47.048;15.390;2023-12-28T02:16:39;98017.66;;;0.97;100.00
12759;BME280;20944;47.048;15.390;2023-12-28T02:19:17;98027.16;;;1.00;100.00
12759;BME280;20944;47.048;15.390;2023-12-28T02:21:47;98027.91;;;0.93;100.00
12759;BME280;20944;47.048;15.390;2023-12-28T02:24:16;98032.31;;;1.00;100.00
12759;BME280;20944;47.048;15.390;2023-12-28T02:26:46;98033.72;;;0.81;100.00
12759;BME280;20944;47.048;15.390;2023-12-28T02:29:14;98027.44;;;0.65;100.00
12759;BME280;20944;47.048;15.390;2023-12-28T02:31:46;98019.31;;;0.44;100.00
12759;BME280;20944;47.048;15.390;2023-12-28T02:34:22;97998.66;;;0.42;100.00
12759;BME280;20944;47.048;15.390;2023-12-28T02:36:56;97994.34;;;0.40;100.00
12759;BME280;20944;47.048;15.390;2023-12-28T02:39:27;98011.75;;;0.51;100.00
12759;BME280;20944;47.048;15.390;2023-12-28T02:41:58;98014.31;;;0.51;100.00
12759;BME280;20944;47.048;15.390;2023-12-28T02:44:27;97949.34;;;0.21;100.00
12759;BME280;20944;47.048;15.390;2023-12-28T02:46:55;98001.44;;;0.51;100.00
12759;BME280;20944;47.048;15.390;2023-12-28T02:49:23;98001.25;;;0.42;100.00
12759;BME280;20944;47.048;15.390;2023-12-28T02:51:52;97994.44;;;0.46;100.00
12759;BME280;20944;47.048;15.390;2023-12-28T02:54:20;97964.00;;;0.25;100.00
12759;BME280;20944;47.048;15.390;2023-12-28T02:56:49;98001.22;;;0.39;100.00
12759;BME280;20944;47.048;15.390;2023-12-28T02:59:18;98000.50;;;0.49;100.00
12759;BME280;20944;47.048;15.390;2023-12-28T03:01:47;97988.50;;;0.50;100.00
12759;BME280;20944;47.048;15.390;2023-12-28T03:04:15;97997.94;;;0.49;100.00
12759;BME280;20944;47.048;15.390;2023-12-28T03:06:46;97993.50;;;0.41;100.00
12759;BME280;20944;47.048;15.390;2023-12-28T03:09:15;97992.66;;;0.43;100.00
12759;BME280;20944;47.048;15.390;2023-12-28T03:11:43;97991.69;;;0.37;100.00
12759;BME280;20944;47.048;15.390;2023-12-28T03:14:12;97958.03;;;0.28;100.00
12759;BME280;20944;47.048;15.390;2023-12-28T03:16:42;97876.66;;;-0.10;100.00
12759;BME280;20944;47.048;15.390;2023-12-28T03:19:10;97973.09;;;0.53;100.00
12759;BME280;20944;47.048;15.390;2023-12-28T03:21:39;97984.28;;;0.53;100.00
12759;BME280;20944;47.048;15.390;2023-12-28T03:24:08;97972.84;;;0.39;100.00
12759;BME280;20944;47.048;15.390;2023-12-28T03:26:38;97959.56;;;0.18;100.00
12759;BME280;20944;47.048;15.390;2023-12-28T03:29:07;97925.94;;;0.09;100.00
12759;BME280;20944;47.048;15.390;2023-12-28T03:31:39;97954.63;;;0.29;100.00
12759;BME280;20944;47.048;15.390;2023-12-28T03:34:09;97948.50;;;0.22;100.00
12759;BME280;20944;47.048;15.390;2023-12-28T03:36:37;97948.41;;;0.17;100.00
12759;BME280;20944;47.048;15.390;2023-12-28T03:39:06;97937.34;;;0.23;100.00
12759;BME280;20944;47.048;15.390;2023-12-28T03:41:35;97946.97;;;0.33;100.00
12759;BME280;20944;47.048;15.390;2023-12-28T03:44:04;97939.19;;;0.30;100.00
12759;BME280;20944;47.048;15.390;2023-12-28T03:46:32;97946.22;;;0.39;100.00
12759;BME280;20944;47.048;15.390;2023-12-28T03:49:00;97936.84;;;0.44;100.00
12759;BME280;20944;47.048;15.390;2023-12-28T03:51:30;97935.03;;;0.38;100.00
12759;BME280;20944;47.048;15.390;2023-12-28T03:53:59;97941.41;;;0.12;100.00
12759;BME280;20944;47.048;15.390;2023-12-28T03:56:28;97925.69;;;-0.04;100.00
12759;BME280;20944;47.048;15.390;2023-12-28T03:58:57;97930.84;;;-0.05;100.00
12759;BME280;20944;47.048;15.390;2023-12-28T04:01:25;97932.50;;;-0.07;100.00
12759;BME280;20944;47.048;15.390;2023-12-28T04:03:53;97931.69;;;-0.06;100.00
12759;BME280;20944;47.048;15.390;2023-12-28T04:06:22;97923.88;;;-0.09;100.00
12759;BME280;20944;47.048;15.390;2023-12-28T04:08:52;97892.53;;;-0.32;100.00
12759;BME280;20944;47.048;15.390;2023-12-28T04:11:20;97922.94;;;-0.13;100.00
12759;BME280;20944;47.048;15.390;2023-12-28T04:13:49;97922.91;;;-0.16;100.00
12759;BME280;20944;47.048;15.390;2023-12-28T04:16:17;97924.88;;;-0.01;100.00
12759;BME280;20944;47.048;15.390;2023-12-28T04:18:46;97915.28;;;-0.10;100.00
12759;BME280;20944;47.048;15.390;2023-12-28T04:21:14;97913.47;;;-0.14;100.00
12759;BME280;20944;47.048;15.390;2023-12-28T04:23:43;97917.75;;;-0.14;100.00
12759;BME280;20944;47.048;15.390;2023-12-28T04:26:12;97773.16;;;-0.87;100.00
12759;BME280;20944;47.048;15.390;2023-12-28T04:28:41;97914.22;;;-0.19;100.00
12759;BME280;20944;47.048;15.390;2023-12-28T04:31:09;97872.50;;;-0.50;100.00
12759;BME280;20944;47.048;15.390;2023-12-28T04:33:38;97918.88;;;-0.02;100.00
12759;BME280;20944;47.048;15.390;2023-12-28T04:36:07;97936.97;;;0.03;100.00
12759;BME280;20944;47.048;15.390;2023-12-28T04:38:35;97930.13;;;0.05;100.00
12759;BME280;20944;47.048;15.390;2023-12-28T04:41:05;97916.38;;;0.03;100.00
12759;BME280;20944;47.048;15.390;2023-12-28T04:43:36;97897.25;;;-0.11;100.00
12759;BME280;20944;47.048;15.390;2023-12-28T04:46:04;97913.81;;;0.05;100.00
12759;BME280;20944;47.048;15.390;2023-12-28T04:48:32;97925.63;;;-0.07;100.00
12759;BME280;20944;47.048;15.390;2023-12-28T04:51:02;97914.22;;;-0.19;100.00
12759;BME280;20944;47.048;15.390;2023-12-28T04:53:31;97928.31;;;-0.02;100.00
12759;BME280;20944;47.048;15.390;2023-12-28T04:56:00;97917.03;;;-0.07;100.00
12759;BME280;20944;47.048;15.390;2023-12-28T04:58:29;97873.63;;;-0.34;100.00
12759;BME280;20944;47.048;15.390;2023-12-28T05:01:01;97922.25;;;-0.04;100.00
12759;BME280;20944;47.048;15.390;2023-12-28T05:03:29;97920.47;;;-0.07;100.00
12759;BME280;20944;47.048;15.390;2023-12-28T05:05:58;97923.63;;;-0.23;100.00
12759;BME280;20944;47.048;15.390;2023-12-28T05:08:26;97937.25;;;-0.29;100.00
12759;BME280;20944;47.048;15.390;2023-12-28T05:10:55;97928.44;;;-0.40;100.00
12759;BME280;20944;47.048;15.390;2023-12-28T05:13:23;97931.09;;;-0.35;100.00
12759;BME280;20944;47.048;15.390;2023-12-28T05:15:52;97934.41;;;-0.42;100.00
12759;BME280;20944;47.048;15.390;2023-12-28T05:18:22;97937.25;;;-0.27;100.00
12759;BME280;20944;47.048;15.390;2023-12-28T05:20:50;97938.97;;;-0.28;100.00
12759;BME280;20944;47.048;15.390;2023-12-28T05:23:19;97933.09;;;-0.20;100.00
12759;BME280;20944;47.048;15.390;2023-12-28T05:25:47;97951.94;;;-0.23;100.00
12759;BME280;20944;47.048;15.390;2023-12-28T05:28:15;97932.09;;;-0.27;100.00
12759;BME280;20944;47.048;15.390;2023-12-28T05:30:44;97939.81;;;-0.29;100.00
12759;BME280;20944;47.048;15.390;2023-12-28T05:33:12;97943.22;;;-0.30;100.00
12759;BME280;20944;47.048;15.390;2023-12-28T05:35:42;97942.38;;;-0.30;100.00
12759;BME280;20944;47.048;15.390;2023-12-28T05:38:11;97932.00;;;-0.33;100.00
12759;BME280;20944;47.048;15.390;2023-12-28T05:40:39;97919.84;;;-0.39;100.00
12759;BME280;20944;47.048;15.390;2023-12-28T05:43:07;97931.00;;;-0.40;100.00
12759;BME280;20944;47.048;15.390;2023-12-28T05:45:36;97901.66;;;-0.49;100.00
12759;BME280;20944;47.048;15.390;2023-12-28T05:48:05;97933.84;;;-0.26;100.00
12759;BME280;20944;47.048;15.390;2023-12-28T05:50:34;97926.84;;;-0.33;100.00
12759;BME280;20944;47.048;15.390;2023-12-28T05:53:04;97942.13;;;-0.42;100.00
12759;BME280;20944;47.048;15.390;2023-12-28T05:55:32;97929.22;;;-0.44;100.00
12759;BME280;20944;47.048;15.390;2023-12-28T05:58:01;97874.50;;;-0.76;100.00
12759;BME280;20944;47.048;15.390;2023-12-28T06:00:29;97935.13;;;-0.48;100.00
12759;BME280;20944;47.048;15.390;2023-12-28T06:02:58;97904.75;;;-0.66;100.00
12759;BME280;20944;47.048;15.390;2023-12-28T06:05:26;97938.72;;;-0.40;100.00
12759;BME280;20944;47.048;15.390;2023-12-28T06:07:55;97933.44;;;-0.46;100.00
12759;BME280;20944;47.048;15.390;2023-12-28T06:10:25;97935.91;;;-0.50;100.00
12759;BME280;20944;47.048;15.390;2023-12-28T06:12:53;97930.72;;;-0.53;100.00
12759;BME280;20944;47.048;15.390;2023-12-28T06:15:22;97932.47;;;-0.51;100.00
12759;BME280;20944;47.048;15.390;2023-12-28T06:17:50;97925.53;;;-0.57;100.00
12759;BME280;20944;47.048;15.390;2023-12-28T06:20:19;97929.84;;;-0.56;100.00
12759;BME280;20944;47.048;15.390;2023-12-28T06:22:47;97917.75;;;-0.58;100.00
12759;BME280;20944;47.048;15.390;2023-12-28T06:25:16;97932.47;;;-0.52;100.00
12759;BME280;20944;47.048;15.390;2023-12-28T06:27:46;97941.31;;;-0.38;100.00
12759;BME280;20944;47.048;15.390;2023-12-28T06:30:15;97872.75;;;-0.78;100.00
12759;BME280;20944;47.048;15.390;2023-12-28T06:32:43;97763.28;;;-1.50;100.00
12759;BME280;20944;47.048;15.390;2023-12-28T06:35:11;97949.59;;;-0.55;100.00
12759;BME280;20944;47.048;15.390;2023-12-28T06:37:41;97952.06;;;-0.59;100.00
12759;BME280;20944;47.048;15.390;2023-12-28T06:40:11;97956.41;;;-0.57;100.00
12759;BME280;20944;47.048;15.390;2023-12-28T06:42:40;97955.56;;;-0.56;100.00
12759;BME280;20944;47.048;15.390;2023-12-28T06:45:11;97956.47;;;-0.53;100.00
12759;BME280;20944;47.048;15.390;2023-12-28T06:47:40;97954.16;;;-0.40;100.00
12759;BME280;20944;47.048;15.390;2023-12-28T06:50:09;97958.44;;;-0.40;100.00
12759;BME280;20944;47.048;15.390;2023-12-28T06:52:37;97932.47;;;-0.52;100.00
12759;BME280;20944;47.048;15.390;2023-12-28T06:55:06;97962.88;;;-0.33;100.00
12759;BME280;20944;47.048;15.390;2023-12-28T06:57:34;97965.56;;;-0.27;100.00
12759;BME280;20944;47.048;15.390;2023-12-28T07:00:03;97963.19;;;-0.18;100.00
12759;BME280;20944;47.048;15.390;2023-12-28T07:02:34;97957.19;;;-0.18;100.00
12759;BME280;20944;47.048;15.390;2023-12-28T07:05:03;97955.41;;;-0.19;100.00
12759;BME280;20944;47.048;15.390;2023-12-28T07:07:32;97953.97;;;-0.07;100.00
12759;BME280;20944;47.048;15.390;2023-12-28T07:10:00;97895.97;;;-0.32;100.00
12759;BME280;20944;47.048;15.390;2023-12-28T07:12:28;97959.28;;;0.01;100.00
12759;BME280;20944;47.048;15.390;2023-12-28T07:14:57;97922.06;;;-0.13;100.00
12759;BME280;20944;47.048;15.390;2023-12-28T07:17:25;97966.31;;;0.11;100.00
12759;BME280;20944;47.048;15.390;2023-12-28T07:19:55;97948.97;;;0.01;100.00
12759;BME280;20944;47.048;15.390;2023-12-28T07:22:24;97975.00;;;0.16;100.00
12759;BME280;20944;47.048;15.390;2023-12-28T07:24:52;97973.28;;;0.17;100.00
12759;BME280;20944;47.048;15.390;2023-12-28T07:27:21;97970.03;;;0.25;100.00
12759;BME280;20944;47.048;15.390;2023-12-28T07:29:49;97977.06;;;0.34;100.00
12759;BME280;20944;47.048;15.390;2023-12-28T07:32:18;97974.50;;;0.37;100.00
12759;BME280;20944;47.048;15.390;2023-12-28T07:34:47;97974.72;;;0.49;100.00
12759;BME280;20944;47.048;15.390;2023-12-28T07:37:17;97967.97;;;0.56;100.00
12759;BME280;20944;47.048;15.390;2023-12-28T07:39:45;97970.81;;;0.70;100.00
12759;BME280;20944;47.048;15.390;2023-12-28T07:42:13;97968.28;;;0.74;100.00
12759;BME280;20944;47.048;15.390;2023-12-28T07:44:43;97956.25;;;0.75;100.00
12759;BME280;20944;47.048;15.390;2023-12-28T07:47:11;97941.47;;;0.63;100.00
12759;BME280;20944;47.048;15.390;2023-12-28T07:49:40;97967.03;;;1.04;100.00
12759;BME280;20944;47.048;15.390;2023-12-28T07:52:08;97912.50;;;0.81;100.00
12759;BME280;20944;47.048;15.390;2023-12-28T07:54:38;97969.91;;;1.25;100.00
12759;BME280;20944;47.048;15.390;2023-12-28T07:57:07;97970.06;;;1.36;100.00
12759;BME280;20944;47.048;15.390;2023-12-28T07:59:35;97970.06;;;1.36;100.00
12759;BME280;20944;47.048;15.390;2023-12-28T08:02:04;97965.88;;;1.43;100.00
12759;BME280;20944;47.048;15.390;2023-12-28T08:04:33;97974.66;;;1.57;100.00
12759;BME280;20944;47.048;15.390;2023-12-28T08:07:01;97977.28;;;1.58;100.00
12759;BME280;20944;47.048;15.390;2023-12-28T08:09:31;97986.00;;;1.68;100.00
12759;BME280;20944;47.048;15.390;2023-12-28T08:12:01;97987.84;;;1.77;100.00
12759;BME280;20944;47.048;15.390;2023-12-28T08:14:29;97993.03;;;1.77;100.00
12759;BME280;20944;47.048;15.390;2023-12-28T08:16:58;97967.84;;;1.62;100.00
12759;BME280;20944;47.048;15.390;2023-12-28T08:19:26;97992.25;;;1.87;100.00
12759;BME280;20944;47.048;15.390;2023-12-28T08:21:55;97993.97;;;1.86;100.00
12759;BME280;20944;47.048;15.390;2023-12-28T08:24:23;97988.09;;;2.00;100.00
12759;BME280;20944;47.048;15.390;2023-12-28T08:26:52;97959.59;;;1.91;100.00
12759;BME280;20944;47.048;15.390;2023-12-28T08:29:26;97961.47;;;2.02;100.00
12759;BME280;20944;47.048;15.390;2023-12-28T08:31:55;97969.16;;;2.01;100.00
12759;BME280;20944;47.048;15.390;2023-12-28T08:34:23;97980.56;;;2.18;100.00
12759;BME280;20944;47.048;15.390;2023-12-28T08:36:52;97981.50;;;2.23;100.00
12759;BME280;20944;47.048;15.390;2023-12-28T08:39:21;97987.53;;;2.22;100.00
12759;BME280;20944;47.048;15.390;2023-12-28T08:41:50;97995.28;;;2.22;100.00
12759;BME280;20944;47.048;15.390;2023-12-28T08:44:18;97983.16;;;2.16;100.00
12759;BME280;20944;47.048;15.390;2023-12-28T08:46:48;97971.88;;;2.08;100.00
12759;BME280;20944;47.048;15.390;2023-12-28T08:49:16;97958.03;;;2.05;100.00
12759;BME280;20944;47.048;15.390;2023-12-28T08:51:45;97993.63;;;2.32;100.00
12759;BME280;20944;47.048;15.390;2023-12-28T08:54:13;98002.31;;;2.35;100.00
12759;BME280;20944;47.048;15.390;2023-12-28T08:56:42;97979.94;;;2.39;100.00
12759;BME280;20944;47.048;15.390;2023-12-28T08:59:12;98003.47;;;2.66;100.00
12759;BME280;20944;47.048;15.390;2023-12-28T09:01:40;98000.03;;;2.69;100.00
12759;BME280;20944;47.048;15.390;2023-12-28T09:04:11;98004.44;;;2.78;100.00
12759;BME280;20944;47.048;15.390;2023-12-28T09:06:41;98007.16;;;2.90;100.00
12759;BME280;20944;47.048;15.390;2023-12-28T09:09:09;98007.25;;;3.02;100.00
12759;BME280;20944;47.048;15.390;2023-12-28T09:11:37;97980.50;;;3.03;100.00
12759;BME280;20944;47.048;15.390;2023-12-28T09:14:05;97999.66;;;3.27;100.00
12759;BME280;20944;47.048;15.390;2023-12-28T09:16:33;98006.63;;;3.37;100.00
12759;BME280;20944;47.048;15.390;2023-12-28T09:19:02;98010.94;;;3.39;100.00
12759;BME280;20944;47.048;15.390;2023-12-28T09:21:32;98010.13;;;3.45;100.00
12759;BME280;20944;47.048;15.390;2023-12-28T09:24:01;98005.88;;;3.53;100.00
12759;BME280;20944;47.048;15.390;2023-12-28T09:26:29;98018.94;;;3.71;100.00
12759;BME280;20944;47.048;15.390;2023-12-28T09:28:59;98005.13;;;3.77;100.00
12759;BME280;20944;47.048;15.390;2023-12-28T09:31:27;98011.31;;;3.97;100.00
12759;BME280;20944;47.048;15.390;2023-12-28T09:33:56;98007.88;;;4.14;100.00
12759;BME280;20944;47.048;15.390;2023-12-28T09:36:24;98001.88;;;4.27;100.00
12759;BME280;20944;47.048;15.390;2023-12-28T09:38:54;98006.25;;;4.43;100.00
12759;BME280;20944;47.048;15.390;2023-12-28T09:41:26;97973.44;;;4.47;100.00
12759;BME280;20944;47.048;15.390;2023-12-28T09:44:02;97984.66;;;4.56;100.00
12759;BME280;20944;47.048;15.390;2023-12-28T09:46:35;97976.03;;;4.59;100.00
12759;BME280;20944;47.048;15.390;2023-12-28T09:49:03;97988.97;;;4.51;100.00
12759;BME280;20944;47.048;15.390;2023-12-28T09:51:32;97968.22;;;4.45;100.00
12759;BME280;20944;47.048;15.390;2023-12-28T09:54:03;97980.34;;;4.55;100.00
12759;BME280;20944;47.048;15.390;2023-12-28T09:56:32;97970.84;;;4.56;100.00
12759;BME280;20944;47.048;15.390;2023-12-28T09:59:02;97990.72;;;4.58;100.00
12759;BME280;20944;47.048;15.390;2023-12-28T10:01:34;97995.91;;;4.51;100.00
12759;BME280;20944;47.048;15.390;2023-12-28T10:04:03;98000.22;;;4.46;100.00
12759;BME280;20944;47.048;15.390;2023-12-28T10:06:31;97902.41;;;3.96;100.00
12759;BME280;20944;47.048;15.390;2023-12-28T10:09:01;97989.84;;;4.52;100.00
12759;BME280;20944;47.048;15.390;2023-12-28T10:11:30;97985.53;;;4.63;100.00
12759;BME280;20944;47.048;15.390;2023-12-28T10:13:58;97957.88;;;4.59;100.00
12759;BME280;20944;47.048;15.390;2023-12-28T10:16:27;97981.22;;;4.76;100.00
12759;BME280;20944;47.048;15.390;2023-12-28T10:18:56;97975.19;;;4.84;100.00
12759;BME280;20944;47.048;15.390;2023-12-28T10:21:25;97959.63;;;4.98;100.00
12759;BME280;20944;47.048;15.390;2023-12-28T10:23:54;97973.47;;;5.17;100.00
12759;BME280;20944;47.048;15.390;2023-12-28T10:26:24;97960.44;;;5.29;100.00
12759;BME280;20944;47.048;15.390;2023-12-28T10:28:57;97962.16;;;5.43;100.00
12759;BME280;20944;47.048;15.390;2023-12-28T10:31:25;97927.50;;;5.39;100.00
12759;BME280;20944;47.048;15.390;2023-12-28T10:33:57;97948.19;;;5.77;100.00
12759;BME280;20944;47.048;15.390;2023-12-28T10:36:27;97906.66;;;5.62;100.00
12759;BME280;20944;47.048;15.390;2023-12-28T10:38:57;97948.94;;;6.08;100.00
12759;BME280;20944;47.048;15.390;2023-12-28T10:41:28;97944.50;;;6.27;100.00
12759;BME280;20944;47.048;15.390;2023-12-28T10:44:02;97947.03;;;6.44;100.00
12759;BME280;20944;47.048;15.390;2023-12-28T10:46:39;97937.47;;;6.46;100.00
12759;BME280;20944;47.048;15.390;2023-12-28T10:49:10;97945.16;;;6.63;100.00
12759;BME280;20944;47.048;15.390;2023-12-28T10:51:41;97947.63;;;6.78;100.00
12759;BME280;20944;47.048;15.390;2023-12-28T10:54:23;97930.19;;;6.89;100.00
12759;BME280;20944;47.048;15.390;2023-12-28T10:56:58;97923.94;;;7.09;100.00
12759;BME280;20944;47.048;15.390;2023-12-28T10:59:35;97936.75;;;7.33;100.00
12759;BME280;20944;47.048;15.390;2023-12-28T11:02:09;97896.88;;;7.22;100.00
12759;BME280;20944;47.048;15.390;2023-12-28T11:04:41;97935.59;;;7.58;100.00
12759;BME280;20944;47.048;15.390;2023-12-28T11:07:11;97933.75;;;7.70;100.00
12759;BME280;20944;47.048;15.390;2023-12-28T11:09:41;97937.06;;;7.82;100.00
12759;BME280;20944;47.048;15.390;2023-12-28T11:12:13;97941.19;;;8.02;100.00
12759;BME280;20944;47.048;15.390;2023-12-28T11:14:42;97936.59;;;8.21;100.00
12759;BME280;20944;47.048;15.390;2023-12-28T11:17:10;97927.59;;;8.45;100.00
12759;BME280;20944;47.048;15.390;2023-12-28T11:19:42;97913.47;;;8.58;98.49
12759;BME280;20944;47.048;15.390;2023-12-28T11:22:11;97921.94;;;8.72;95.45
12759;BME280;20944;47.048;15.390;2023-12-28T11:24:40;97929.41;;;8.95;93.76
12759;BME280;20944;47.048;15.390;2023-12-28T11:27:11;97918.63;;;9.15;93.05
12759;BME280;20944;47.048;15.390;2023-12-28T11:29:41;97913.97;;;9.32;90.71
12759;BME280;20944;47.048;15.390;2023-12-28T11:32:11;97924.72;;;9.63;88.36
12759;BME280;20944;47.048;15.390;2023-12-28T11:34:39;97928.66;;;9.84;85.92
12759;BME280;20944;47.048;15.390;2023-12-28T11:37:12;97922.22;;;9.99;81.61
12759;BME280;20944;47.048;15.390;2023-12-28T11:39:48;97908.06;;;10.09;77.55
12759;BME280;20944;47.048;15.390;2023-12-28T11:42:22;97904.19;;;10.29;77.50
12759;BME280;20944;47.048;15.390;2023-12-28T11:44:54;97912.44;;;10.49;79.90
12759;BME280;20944;47.048;15.390;2023-12-28T11:47:23;97903.81;;;10.45;77.67
12759;BME280;20944;47.048;15.390;2023-12-28T11:49:52;97899.97;;;10.60;74.06
12759;BME280;20944;47.048;15.390;2023-12-28T11:52:25;97893.34;;;10.81;74.01
12759;BME280;20944;47.048;15.390;2023-12-28T11:54:54;97889.59;;;10.91;75.51
12759;BME280;20944;47.048;15.390;2023-12-28T11:57:24;97886.41;;;11.14;73.49
12759;BME280;20944;47.048;15.390;2023-12-28T11:59:55;97866.34;;;11.13;73.27
12759;BME280;20944;47.048;15.390;2023-12-28T12:02:24;97883.31;;;11.32;71.04
12759;BME280;20944;47.048;15.390;2023-12-28T12:04:53;97874.19;;;11.46;68.69
12759;BME280;20944;47.048;15.390;2023-12-28T12:07:22;97883.50;;;11.57;70.98
12759;BME280;20944;47.048;15.390;2023-12-28T12:09:55;97853.22;;;11.46;67.98
12759;BME280;20944;47.048;15.390;2023-12-28T12:12:25;97877.13;;;11.66;67.64
12759;BME280;20944;47.048;15.390;2023-12-28T12:14:54;97866.56;;;11.68;67.23
12759;BME280;20944;47.048;15.390;2023-12-28T12:17:24;97887.78;;;11.93;66.89
12759;BME280;20944;47.048;15.390;2023-12-28T12:19:54;97880.31;;;12.08;66.45
12759;BME280;20944;47.048;15.390;2023-12-28T12:22:25;97880.09;;;12.16;67.74
12759;BME280;20944;47.048;15.390;2023-12-28T12:24:56;97890.84;;;12.36;67.48
12759;BME280;20944;47.048;15.390;2023-12-28T12:27:29;97877.31;;;12.49;66.92
12759;BME280;20944;47.048;15.390;2023-12-28T12:29:58;97870.75;;;12.62;64.96
12759;BME280;20944;47.048;15.390;2023-12-28T12:32:27;97880.44;;;12.88;66.23
12759;BME280;20944;47.048;15.390;2023-12-28T12:34:56;97881.72;;;13.03;66.53
12759;BME280;20944;47.048;15.390;2023-12-28T12:37:24;97870.59;;;13.19;66.62
12759;BME280;20944;47.048;15.390;2023-12-28T12:39:53;97841.06;;;13.11;66.15
12759;BME280;20944;47.048;15.390;2023-12-28T12:42:22;97861.31;;;13.09;68.15
12759;BME280;20944;47.048;15.390;2023-12-28T12:44:52;97873.91;;;13.00;63.06
12759;BME280;20944;47.048;15.390;2023-12-28T12:47:20;97877.66;;;12.92;63.51
12759;BME280;20944;47.048;15.390;2023-12-28T12:49:51;97881.84;;;12.98;63.23
12759;BME280;20944;47.048;15.390;2023-12-28T12:52:19;97885.25;;;13.02;62.86
12759;BME280;20944;47.048;15.390;2023-12-28T12:54:53;97898.00;;;13.14;62.78
12759;BME280;20944;47.048;15.390;2023-12-28T12:57:22;97895.44;;;13.37;63.42